sensor_id;sensor_type;location;lat;lon;timestamp;temperature;humidity
27890;DHT22;15238;49.082;9.102;2022-12-18T00:00:51;-8.40;99.90
27890;DHT22;15238;49.082;9.102;2022-12-18T00:02:52;-8.40;99.90
27890;DHT22;15238;49.082;9.102;2022-12-18T00:04:52;-8.40;99.90
27890;DHT22;15238;49.082;9.102;2022-12-18T00:06:53;-8.30;99.90
27890;DHT22;15238;49.082;9.102;2022-12-18T00:08:55;-8.40;99.90
27890;DHT22;15238;49.082;9.102;2022-12-18T00:11:04;-8.30;99.90
27890;DHT22;15238;49.082;9.102;2022-12-18T00:13:05;-8.30;99.90
27890;DHT22;15238;49.082;9.102;2022-12-18T00:15:05;-8.30;99.90
27890;DHT22;15238;49.082;9.102;2022-12-18T00:17:06;-8.40;99.90
27890;DHT22;15238;49.082;9.102;2022-12-18T00:19:07;-8.40;99.90
27890;DHT22;15238;49.082;9.102;2022-12-18T00:21:09;-8.40;99.90
27890;DHT22;15238;49.082;9.102;2022-12-18T00:23:10;-8.40;99.90
27890;DHT22;15238;49.082;9.102;2022-12-18T00:25:10;-8.40;99.90
27890;DHT22;15238;49.082;9.102;2022-12-18T00:27:11;-8.40;99.90
27890;DHT22;15238;49.082;9.102;2022-12-18T00:29:13;-8.40;99.90
27890;DHT22;15238;49.082;9.102;2022-12-18T00:31:20;-8.40;99.90
27890;DHT22;15238;49.082;9.102;2022-12-18T00:33:21;-8.40;99.90
27890;DHT22;15238;49.082;9.102;2022-12-18T00:35:22;-8.40;99.90
27890;DHT22;15238;49.082;9.102;2022-12-18T00:37:22;-8.50;99.90
27890;DHT22;15238;49.082;9.102;2022-12-18T00:39:23;-8.60;99.90
27890;DHT22;15238;49.082;9.102;2022-12-18T00:41:25;-8.60;99.90
27890;DHT22;15238;49.082;9.102;2022-12-18T00:43:44;-8.60;99.90
27890;DHT22;15238;49.082;9.102;2022-12-18T00:45:45;-8.60;99.90
27890;DHT22;15238;49.082;9.102;2022-12-18T00:47:45;-8.50;99.90
27890;DHT22;15238;49.082;9.102;2022-12-18T00:49:46;-8.50;99.90
27890;DHT22;15238;49.082;9.102;2022-12-18T00:51:48;-8.50;99.90
27890;DHT22;15238;49.082;9.102;2022-12-18T00:53:48;-8.50;99.90
27890;DHT22;15238;49.082;9.102;2022-12-18T00:55:49;-8.50;99.90
27890;DHT22;15238;49.082;9.102;2022-12-18T00:57:51;-8.50;99.90
27890;DHT22;15238;49.082;9.102;2022-12-18T00:59:52;-8.50;99.90
27890;DHT22;15238;49.082;9.102;2022-12-18T01:01:53;-8.50;99.90
27890;DHT22;15238;49.082;9.102;2022-12-18T01:03:53;-8.50;99.90
27890;DHT22;15238;49.082;9.102;2022-12-18T01:05:54;-8.40;99.90
27890;DHT22;15238;49.082;9.102;2022-12-18T01:07:56;-8.50;99.90
27890;DHT22;15238;49.082;9.102;2022-12-18T01:09:56;-8.50;99.90
27890;DHT22;15238;49.082;9.102;2022-12-18T01:11:57;-8.50;99.90
27890;DHT22;15238;49.082;9.102;2022-12-18T01:13:59;-8.40;99.90
27890;DHT22;15238;49.082;9.102;2022-12-18T01:15:59;-8.40;99.90
27890;DHT22;15238;49.082;9.102;2022-12-18T01:18:00;-8.40;99.90
27890;DHT22;15238;49.082;9.102;2022-12-18T01:20:00;-8.50;99.90
27890;DHT22;15238;49.082;9.102;2022-12-18T01:22:01;-8.50;99.90
27890;DHT22;15238;49.082;9.102;2022-12-18T01:24:02;-8.50;99.90
27890;DHT22;15238;49.082;9.102;2022-12-18T01:26:14;-8.50;99.90
27890;DHT22;15238;49.082;9.102;2022-12-18T01:28:14;-8.50;99.90
27890;DHT22;15238;49.082;9.102;2022-12-18T01:30:15;-8.50;99.90
27890;DHT22;15238;49.082;9.102;2022-12-18T01:32:15;-8.50;99.90
27890;DHT22;15238;49.082;9.102;2022-12-18T01:34:16;-8.40;99.90
27890;DHT22;15238;49.082;9.102;2022-12-18T01:36:23;-8.50;99.90
27890;DHT22;15238;49.082;9.102;2022-12-18T01:38:23;-8.40;99.90
27890;DHT22;15238;49.082;9.102;2022-12-18T01:40:24;-8.40;99.90
27890;DHT22;15238;49.082;9.102;2022-12-18T01:42:24;-8.40;99.90
27890;DHT22;15238;49.082;9.102;2022-12-18T01:46:57;-8.40;99.90
27890;DHT22;15238;49.082;9.102;2022-12-18T01:49:00;-8.40;99.90
27890;DHT22;15238;49.082;9.102;2022-12-18T01:51:01;-8.50;99.90
27890;DHT22;15238;49.082;9.102;2022-12-18T01:53:14;-8.40;99.90
27890;DHT22;15238;49.082;9.102;2022-12-18T01:55:17;-8.40;99.90
27890;DHT22;15238;49.082;9.102;2022-12-18T01:57:19;-8.50;99.90
27890;DHT22;15238;49.082;9.102;2022-12-18T01:59:19;-8.50;99.90
27890;DHT22;15238;49.082;9.102;2022-12-18T02:01:22;-8.60;99.90
27890;DHT22;15238;49.082;9.102;2022-12-18T02:03:23;-8.60;99.90
27890;DHT22;15238;49.082;9.102;2022-12-18T02:05:44;-8.60;99.90
27890;DHT22;15238;49.082;9.102;2022-12-18T02:08:00;-8.70;99.90
27890;DHT22;15238;49.082;9.102;2022-12-18T02:10:07;-8.70;99.90
27890;DHT22;15238;49.082;9.102;2022-12-18T02:12:16;-8.70;99.90
27890;DHT22;15238;49.082;9.102;2022-12-18T02:17:01;-8.70;99.90
27890;DHT22;15238;49.082;9.102;2022-12-18T02:19:30;-8.60;99.90
27890;DHT22;15238;49.082;9.102;2022-12-18T02:22:06;-8.60;99.90
27890;DHT22;15238;49.082;9.102;2022-12-18T02:26:38;-8.60;99.90
27890;DHT22;15238;49.082;9.102;2022-12-18T02:28:46;-8.60;99.90
27890;DHT22;15238;49.082;9.102;2022-12-18T02:30:50;-8.70;99.90
27890;DHT22;15238;49.082;9.102;2022-12-18T02:32:54;-8.70;99.90
27890;DHT22;15238;49.082;9.102;2022-12-18T02:34:56;-8.80;99.90
27890;DHT22;15238;49.082;9.102;2022-12-18T02:37:01;-8.70;99.90
27890;DHT22;15238;49.082;9.102;2022-12-18T02:39:04;-8.70;99.90
27890;DHT22;15238;49.082;9.102;2022-12-18T02:41:05;-8.70;99.90
27890;DHT22;15238;49.082;9.102;2022-12-18T02:43:11;-8.70;99.90
27890;DHT22;15238;49.082;9.102;2022-12-18T02:45:12;-8.60;99.90
27890;DHT22;15238;49.082;9.102;2022-12-18T02:47:14;-8.60;99.90
27890;DHT22;15238;49.082;9.102;2022-12-18T02:51:55;-8.60;99.90
27890;DHT22;15238;49.082;9.102;2022-12-18T02:54:10;-8.60;99.90
27890;DHT22;15238;49.082;9.102;2022-12-18T02:56:23;-8.60;99.90
27890;DHT22;15238;49.082;9.102;2022-12-18T03:00:36;-8.50;99.90
27890;DHT22;15238;49.082;9.102;2022-12-18T03:03:10;-8.60;99.90
27890;DHT22;15238;49.082;9.102;2022-12-18T03:05:40;-8.60;99.90
27890;DHT22;15238;49.082;9.102;2022-12-18T03:07:58;-8.60;99.90
27890;DHT22;15238;49.082;9.102;2022-12-18T03:10:01;-8.60;99.90
27890;DHT22;15238;49.082;9.102;2022-12-18T03:12:18;-8.60;99.90
27890;DHT22;15238;49.082;9.102;2022-12-18T03:14:26;-8.60;99.90
27890;DHT22;15238;49.082;9.102;2022-12-18T03:16:30;-8.60;99.90
27890;DHT22;15238;49.082;9.102;2022-12-18T03:18:49;-8.60;99.90
27890;DHT22;15238;49.082;9.102;2022-12-18T03:20:51;-8.50;99.90
27890;DHT22;15238;49.082;9.102;2022-12-18T03:22:57;-8.60;99.90
27890;DHT22;15238;49.082;9.102;2022-12-18T03:25:03;-8.50;99.90
27890;DHT22;15238;49.082;9.102;2022-12-18T03:27:10;-8.60;99.90
27890;DHT22;15238;49.082;9.102;2022-12-18T03:29:33;-8.60;99.90
27890;DHT22;15238;49.082;9.102;2022-12-18T03:31:38;-8.50;99.90
27890;DHT22;15238;49.082;9.102;2022-12-18T03:33:54;-8.50;99.90
27890;DHT22;15238;49.082;9.102;2022-12-18T03:35:55;-8.40;99.90
27890;DHT22;15238;49.082;9.102;2022-12-18T03:37:56;-8.50;99.90
27890;DHT22;15238;49.082;9.102;2022-12-18T03:39:57;-8.50;99.90
27890;DHT22;15238;49.082;9.102;2022-12-18T03:42:07;-8.40;99.90
27890;DHT22;15238;49.082;9.102;2022-12-18T03:44:16;-8.40;99.90
27890;DHT22;15238;49.082;9.102;2022-12-18T03:46:49;-8.50;99.90
27890;DHT22;15238;49.082;9.102;2022-12-18T03:51:39;-8.50;99.90
27890;DHT22;15238;49.082;9.102;2022-12-18T03:53:50;-8.50;99.90
27890;DHT22;15238;49.082;9.102;2022-12-18T03:55:52;-8.50;99.90
27890;DHT22;15238;49.082;9.102;2022-12-18T03:57:54;-8.60;99.90
27890;DHT22;15238;49.082;9.102;2022-12-18T03:59:57;-8.50;99.90
27890;DHT22;15238;49.082;9.102;2022-12-18T04:02:01;-8.50;99.90
27890;DHT22;15238;49.082;9.102;2022-12-18T04:04:05;-8.50;99.90
27890;DHT22;15238;49.082;9.102;2022-12-18T04:06:07;-8.50;99.90
27890;DHT22;15238;49.082;9.102;2022-12-18T04:08:08;-8.50;99.90
27890;DHT22;15238;49.082;9.102;2022-12-18T04:10:11;-8.50;99.90
27890;DHT22;15238;49.082;9.102;2022-12-18T04:12:12;-8.50;99.90
27890;DHT22;15238;49.082;9.102;2022-12-18T04:14:13;-8.50;99.90
27890;DHT22;15238;49.082;9.102;2022-12-18T04:16:14;-8.50;99.90
27890;DHT22;15238;49.082;9.102;2022-12-18T04:18:14;-8.50;99.90
27890;DHT22;15238;49.082;9.102;2022-12-18T04:20:15;-8.50;99.90
27890;DHT22;15238;49.082;9.102;2022-12-18T04:22:15;-8.60;99.90
27890;DHT22;15238;49.082;9.102;2022-12-18T04:24:16;-8.60;99.90
27890;DHT22;15238;49.082;9.102;2022-12-18T04:26:16;-8.60;99.90
27890;DHT22;15238;49.082;9.102;2022-12-18T04:28:17;-8.60;99.90
27890;DHT22;15238;49.082;9.102;2022-12-18T04:30:18;-8.60;99.90
27890;DHT22;15238;49.082;9.102;2022-12-18T04:32:18;-8.60;99.90
27890;DHT22;15238;49.082;9.102;2022-12-18T04:34:19;-8.60;99.90
27890;DHT22;15238;49.082;9.102;2022-12-18T04:36:19;-8.60;99.90
27890;DHT22;15238;49.082;9.102;2022-12-18T04:38:20;-8.60;99.90
27890;DHT22;15238;49.082;9.102;2022-12-18T04:40:21;-8.60;99.90
27890;DHT22;15238;49.082;9.102;2022-12-18T04:42:21;-8.60;99.90
27890;DHT22;15238;49.082;9.102;2022-12-18T04:44:22;-8.50;99.90
27890;DHT22;15238;49.082;9.102;2022-12-18T04:46:22;-8.60;99.90
27890;DHT22;15238;49.082;9.102;2022-12-18T04:48:23;-8.60;99.90
27890;DHT22;15238;49.082;9.102;2022-12-18T04:50:23;-8.70;99.90
27890;DHT22;15238;49.082;9.102;2022-12-18T04:52:24;-8.70;99.90
27890;DHT22;15238;49.082;9.102;2022-12-18T04:54:25;-8.70;99.90
27890;DHT22;15238;49.082;9.102;2022-12-18T04:56:25;-8.80;99.90
27890;DHT22;15238;49.082;9.102;2022-12-18T04:58:26;-8.70;99.90
27890;DHT22;15238;49.082;9.102;2022-12-18T05:00:26;-8.70;99.90
27890;DHT22;15238;49.082;9.102;2022-12-18T05:02:27;-8.70;99.90
27890;DHT22;15238;49.082;9.102;2022-12-18T05:04:27;-8.60;99.90
27890;DHT22;15238;49.082;9.102;2022-12-18T05:06:28;-8.50;99.90
27890;DHT22;15238;49.082;9.102;2022-12-18T05:08:29;-8.40;99.90
27890;DHT22;15238;49.082;9.102;2022-12-18T05:10:29;-8.40;99.90
27890;DHT22;15238;49.082;9.102;2022-12-18T05:12:31;-8.30;99.90
27890;DHT22;15238;49.082;9.102;2022-12-18T05:14:31;-8.30;99.90
27890;DHT22;15238;49.082;9.102;2022-12-18T05:16:32;-8.30;99.90
27890;DHT22;15238;49.082;9.102;2022-12-18T05:18:33;-8.30;99.90
27890;DHT22;15238;49.082;9.102;2022-12-18T05:20:33;-8.20;99.90
27890;DHT22;15238;49.082;9.102;2022-12-18T05:22:34;-8.20;99.90
27890;DHT22;15238;49.082;9.102;2022-12-18T05:24:34;-8.20;99.90
27890;DHT22;15238;49.082;9.102;2022-12-18T05:26:35;-8.20;99.90
27890;DHT22;15238;49.082;9.102;2022-12-18T05:28:36;-8.20;99.90
27890;DHT22;15238;49.082;9.102;2022-12-18T05:30:37;-8.10;99.90
27890;DHT22;15238;49.082;9.102;2022-12-18T05:32:37;-8.10;99.90
27890;DHT22;15238;49.082;9.102;2022-12-18T05:34:38;-8.20;99.90
27890;DHT22;15238;49.082;9.102;2022-12-18T05:36:38;-8.20;99.90
27890;DHT22;15238;49.082;9.102;2022-12-18T05:38:39;-8.20;99.90
27890;DHT22;15238;49.082;9.102;2022-12-18T05:40:42;-8.20;99.90
27890;DHT22;15238;49.082;9.102;2022-12-18T05:42:42;-8.20;99.90
27890;DHT22;15238;49.082;9.102;2022-12-18T05:44:43;-8.20;99.90
27890;DHT22;15238;49.082;9.102;2022-12-18T05:46:44;-8.20;99.90
27890;DHT22;15238;49.082;9.102;2022-12-18T05:48:45;-8.20;99.90
27890;DHT22;15238;49.082;9.102;2022-12-18T05:50:47;-8.30;99.90
27890;DHT22;15238;49.082;9.102;2022-12-18T05:52:48;-8.20;99.90
27890;DHT22;15238;49.082;9.102;2022-12-18T05:54:49;-8.30;99.90
27890;DHT22;15238;49.082;9.102;2022-12-18T05:56:49;-8.30;99.90
27890;DHT22;15238;49.082;9.102;2022-12-18T05:58:53;-8.30;99.90
27890;DHT22;15238;49.082;9.102;2022-12-18T06:00:54;-8.30;99.90
27890;DHT22;15238;49.082;9.102;2022-12-18T06:02:54;-8.30;99.90
27890;DHT22;15238;49.082;9.102;2022-12-18T06:04:55;-8.30;99.90
27890;DHT22;15238;49.082;9.102;2022-12-18T06:06:55;-8.40;99.90
27890;DHT22;15238;49.082;9.102;2022-12-18T06:08:56;-8.30;99.90
27890;DHT22;15238;49.082;9.102;2022-12-18T06:10:57;-8.30;99.90
27890;DHT22;15238;49.082;9.102;2022-12-18T06:12:57;-8.30;99.90
27890;DHT22;15238;49.082;9.102;2022-12-18T06:14:58;-8.40;99.90
27890;DHT22;15238;49.082;9.102;2022-12-18T06:16:58;-8.40;99.90
27890;DHT22;15238;49.082;9.102;2022-12-18T06:19:00;-8.50;99.90
27890;DHT22;15238;49.082;9.102;2022-12-18T06:21:01;-8.50;99.90
27890;DHT22;15238;49.082;9.102;2022-12-18T06:23:03;-8.60;99.90
27890;DHT22;15238;49.082;9.102;2022-12-18T06:25:04;-8.70;99.90
27890;DHT22;15238;49.082;9.102;2022-12-18T06:27:06;-8.70;99.90
27890;DHT22;15238;49.082;9.102;2022-12-18T06:29:06;-8.80;99.90
27890;DHT22;15238;49.082;9.102;2022-12-18T06:31:07;-8.80;99.90
27890;DHT22;15238;49.082;9.102;2022-12-18T06:33:08;-8.90;99.90
27890;DHT22;15238;49.082;9.102;2022-12-18T06:35:09;-8.90;99.90
27890;DHT22;15238;49.082;9.102;2022-12-18T06:37:09;-8.80;99.90
27890;DHT22;15238;49.082;9.102;2022-12-18T06:39:10;-8.80;99.90
27890;DHT22;15238;49.082;9.102;2022-12-18T06:41:16;-8.80;99.90
27890;DHT22;15238;49.082;9.102;2022-12-18T06:43:16;-8.80;99.90
27890;DHT22;15238;49.082;9.102;2022-12-18T06:45:17;-8.80;99.90
27890;DHT22;15238;49.082;9.102;2022-12-18T06:47:18;-8.80;99.90
27890;DHT22;15238;49.082;9.102;2022-12-18T06:49:18;-8.70;99.90
27890;DHT22;15238;49.082;9.102;2022-12-18T06:51:21;-8.70;99.90
27890;DHT22;15238;49.082;9.102;2022-12-18T06:53:22;-8.70;99.90
27890;DHT22;15238;49.082;9.102;2022-12-18T06:55:22;-8.70;99.90
27890;DHT22;15238;49.082;9.102;2022-12-18T06:57:23;-8.70;99.90
27890;DHT22;15238;49.082;9.102;2022-12-18T06:59:23;-8.70;99.90
27890;DHT22;15238;49.082;9.102;2022-12-18T07:01:24;-8.70;99.90
27890;DHT22;15238;49.082;9.102;2022-12-18T07:03:24;-8.70;99.90
27890;DHT22;15238;49.082;9.102;2022-12-18T07:05:25;-8.80;99.90
27890;DHT22;15238;49.082;9.102;2022-12-18T07:07:25;-8.90;99.90
27890;DHT22;15238;49.082;9.102;2022-12-18T07:09:26;-9.10;99.90
27890;DHT22;15238;49.082;9.102;2022-12-18T07:11:26;-9.20;99.90
27890;DHT22;15238;49.082;9.102;2022-12-18T07:13:27;-9.30;99.90
27890;DHT22;15238;49.082;9.102;2022-12-18T07:15:27;-9.40;99.90
27890;DHT22;15238;49.082;9.102;2022-12-18T07:17:28;-9.40;99.90
27890;DHT22;15238;49.082;9.102;2022-12-18T07:19:29;-9.40;99.90
27890;DHT22;15238;49.082;9.102;2022-12-18T07:21:30;-9.40;99.90
27890;DHT22;15238;49.082;9.102;2022-12-18T07:23:32;-9.40;99.90
27890;DHT22;15238;49.082;9.102;2022-12-18T07:25:36;-9.30;99.90
27890;DHT22;15238;49.082;9.102;2022-12-18T07:27:37;-9.20;99.90
27890;DHT22;15238;49.082;9.102;2022-12-18T07:29:37;-9.20;99.90
27890;DHT22;15238;49.082;9.102;2022-12-18T07:31:38;-9.20;99.90
27890;DHT22;15238;49.082;9.102;2022-12-18T07:33:38;-9.10;99.90
27890;DHT22;15238;49.082;9.102;2022-12-18T07:35:39;-9.10;99.90
27890;DHT22;15238;49.082;9.102;2022-12-18T07:37:39;-9.10;99.90
27890;DHT22;15238;49.082;9.102;2022-12-18T07:39:40;-9.00;99.90
27890;DHT22;15238;49.082;9.102;2022-12-18T07:41:41;-9.00;99.90
27890;DHT22;15238;49.082;9.102;2022-12-18T07:43:46;-9.00;99.90
27890;DHT22;15238;49.082;9.102;2022-12-18T07:45:49;-8.90;99.90
27890;DHT22;15238;49.082;9.102;2022-12-18T07:47:50;-8.90;99.90
27890;DHT22;15238;49.082;9.102;2022-12-18T07:49:51;-8.80;99.90
27890;DHT22;15238;49.082;9.102;2022-12-18T07:51:57;-8.70;99.90
27890;DHT22;15238;49.082;9.102;2022-12-18T07:53:57;-8.60;99.90
27890;DHT22;15238;49.082;9.102;2022-12-18T07:55:59;-8.60;99.90
27890;DHT22;15238;49.082;9.102;2022-12-18T07:58:02;-8.60;99.90
27890;DHT22;15238;49.082;9.102;2022-12-18T08:00:03;-8.40;99.90
27890;DHT22;15238;49.082;9.102;2022-12-18T08:02:04;-8.30;99.90
27890;DHT22;15238;49.082;9.102;2022-12-18T08:04:04;-8.00;99.90
27890;DHT22;15238;49.082;9.102;2022-12-18T08:06:07;-7.80;99.90
27890;DHT22;15238;49.082;9.102;2022-12-18T08:08:07;-7.60;99.90
27890;DHT22;15238;49.082;9.102;2022-12-18T08:10:08;-7.30;99.90
27890;DHT22;15238;49.082;9.102;2022-12-18T08:12:09;-7.10;99.90
27890;DHT22;15238;49.082;9.102;2022-12-18T08:14:10;-6.80;99.90
27890;DHT22;15238;49.082;9.102;2022-12-18T08:16:10;-6.50;99.90
27890;DHT22;15238;49.082;9.102;2022-12-18T08:18:11;-6.30;99.90
27890;DHT22;15238;49.082;9.102;2022-12-18T08:20:12;-6.10;99.90
27890;DHT22;15238;49.082;9.102;2022-12-18T08:22:15;-6.10;99.90
27890;DHT22;15238;49.082;9.102;2022-12-18T08:24:16;-5.90;99.90
27890;DHT22;15238;49.082;9.102;2022-12-18T08:26:17;-5.80;99.90
27890;DHT22;15238;49.082;9.102;2022-12-18T08:28:18;-5.70;99.90
27890;DHT22;15238;49.082;9.102;2022-12-18T08:30:18;-5.60;99.90
27890;DHT22;15238;49.082;9.102;2022-12-18T08:32:19;-5.50;99.90
27890;DHT22;15238;49.082;9.102;2022-12-18T08:34:19;-5.50;99.90
27890;DHT22;15238;49.082;9.102;2022-12-18T08:36:21;-5.60;99.90
27890;DHT22;15238;49.082;9.102;2022-12-18T08:38:22;-5.70;99.90
27890;DHT22;15238;49.082;9.102;2022-12-18T08:40:23;-5.70;99.90
27890;DHT22;15238;49.082;9.102;2022-12-18T08:42:24;-5.80;99.90
27890;DHT22;15238;49.082;9.102;2022-12-18T08:44:42;-6.10;99.90
27890;DHT22;15238;49.082;9.102;2022-12-18T08:46:43;-6.30;99.90
27890;DHT22;15238;49.082;9.102;2022-12-18T08:48:44;-6.30;99.90
27890;DHT22;15238;49.082;9.102;2022-12-18T08:50:57;-6.50;99.90
27890;DHT22;15238;49.082;9.102;2022-12-18T08:52:58;-6.40;99.90
27890;DHT22;15238;49.082;9.102;2022-12-18T08:54:58;-6.40;99.90
27890;DHT22;15238;49.082;9.102;2022-12-18T08:56:59;-6.40;99.90
27890;DHT22;15238;49.082;9.102;2022-12-18T08:58:59;-6.40;99.90
27890;DHT22;15238;49.082;9.102;2022-12-18T09:01:01;-6.40;99.90
27890;DHT22;15238;49.082;9.102;2022-12-18T09:03:02;-6.40;99.90
27890;DHT22;15238;49.082;9.102;2022-12-18T09:05:03;-6.30;99.90
27890;DHT22;15238;49.082;9.102;2022-12-18T09:07:03;-6.40;99.90
27890;DHT22;15238;49.082;9.102;2022-12-18T09:09:04;-6.40;99.90
27890;DHT22;15238;49.082;9.102;2022-12-18T09:11:11;-6.30;99.90
27890;DHT22;15238;49.082;9.102;2022-12-18T09:13:13;-6.30;99.90
27890;DHT22;15238;49.082;9.102;2022-12-18T09:15:15;-6.30;99.90
27890;DHT22;15238;49.082;9.102;2022-12-18T09:17:16;-6.20;99.90
27890;DHT22;15238;49.082;9.102;2022-12-18T09:19:16;-6.10;99.90
27890;DHT22;15238;49.082;9.102;2022-12-18T09:21:19;-6.00;99.90
27890;DHT22;15238;49.082;9.102;2022-12-18T09:23:20;-5.90;99.90
27890;DHT22;15238;49.082;9.102;2022-12-18T09:25:21;-5.90;99.90
27890;DHT22;15238;49.082;9.102;2022-12-18T09:27:21;-5.70;99.90
27890;DHT22;15238;49.082;9.102;2022-12-18T09:29:22;-5.70;99.90
27890;DHT22;15238;49.082;9.102;2022-12-18T09:31:23;-5.70;99.90
27890;DHT22;15238;49.082;9.102;2022-12-18T09:33:24;-5.80;99.90
27890;DHT22;15238;49.082;9.102;2022-12-18T09:35:25;-5.70;99.90
27890;DHT22;15238;49.082;9.102;2022-12-18T09:37:27;-5.80;99.90
27890;DHT22;15238;49.082;9.102;2022-12-18T09:39:28;-5.90;99.90
27890;DHT22;15238;49.082;9.102;2022-12-18T09:41:45;-5.80;99.90
27890;DHT22;15238;49.082;9.102;2022-12-18T09:43:51;-5.80;99.90
27890;DHT22;15238;49.082;9.102;2022-12-18T09:46:00;-5.80;99.90
27890;DHT22;15238;49.082;9.102;2022-12-18T09:48:02;-5.80;99.90
27890;DHT22;15238;49.082;9.102;2022-12-18T09:50:06;-5.70;99.90
27890;DHT22;15238;49.082;9.102;2022-12-18T09:52:27;-5.60;99.90
27890;DHT22;15238;49.082;9.102;2022-12-18T09:54:35;-5.50;99.90
27890;DHT22;15238;49.082;9.102;2022-12-18T09:56:41;-5.50;99.90
27890;DHT22;15238;49.082;9.102;2022-12-18T09:58:57;-5.30;99.90
27890;DHT22;15238;49.082;9.102;2022-12-18T10:00:58;-5.20;99.90
27890;DHT22;15238;49.082;9.102;2022-12-18T10:03:03;-5.20;99.90
27890;DHT22;15238;49.082;9.102;2022-12-18T10:05:14;-5.00;99.90
27890;DHT22;15238;49.082;9.102;2022-12-18T10:07:26;-4.90;99.90
27890;DHT22;15238;49.082;9.102;2022-12-18T10:18:06;-4.40;99.90
27890;DHT22;15238;49.082;9.102;2022-12-18T10:27:06;-3.90;99.90
27890;DHT22;15238;49.082;9.102;2022-12-18T10:29:14;-3.80;99.90
27890;DHT22;15238;49.082;9.102;2022-12-18T10:31:17;-3.80;99.90
27890;DHT22;15238;49.082;9.102;2022-12-18T10:33:23;-3.70;99.90
27890;DHT22;15238;49.082;9.102;2022-12-18T10:35:26;-3.70;99.90
27890;DHT22;15238;49.082;9.102;2022-12-18T10:37:29;-3.70;99.90
27890;DHT22;15238;49.082;9.102;2022-12-18T10:39:29;-3.60;99.90
27890;DHT22;15238;49.082;9.102;2022-12-18T10:41:30;-3.60;99.90
27890;DHT22;15238;49.082;9.102;2022-12-18T10:43:34;-3.50;99.90
27890;DHT22;15238;49.082;9.102;2022-12-18T10:45:35;-3.40;99.90
27890;DHT22;15238;49.082;9.102;2022-12-18T10:47:36;-3.40;99.90
27890;DHT22;15238;49.082;9.102;2022-12-18T10:49:50;-3.40;99.90
27890;DHT22;15238;49.082;9.102;2022-12-18T10:54:21;-3.40;99.90
27890;DHT22;15238;49.082;9.102;2022-12-18T10:56:24;-3.40;99.90
27890;DHT22;15238;49.082;9.102;2022-12-18T10:58:33;-3.40;99.90
27890;DHT22;15238;49.082;9.102;2022-12-18T11:00:34;-3.40;99.90
27890;DHT22;15238;49.082;9.102;2022-12-18T11:02:37;-3.30;99.90
27890;DHT22;15238;49.082;9.102;2022-12-18T11:04:50;-3.20;99.90
27890;DHT22;15238;49.082;9.102;2022-12-18T11:07:05;-3.10;99.90
27890;DHT22;15238;49.082;9.102;2022-12-18T11:09:21;-2.90;99.90
27890;DHT22;15238;49.082;9.102;2022-12-18T11:11:23;-2.90;99.90
27890;DHT22;15238;49.082;9.102;2022-12-18T11:13:27;-2.90;99.90
27890;DHT22;15238;49.082;9.102;2022-12-18T11:15:29;-2.90;99.90
27890;DHT22;15238;49.082;9.102;2022-12-18T11:17:34;-2.80;99.90
27890;DHT22;15238;49.082;9.102;2022-12-18T11:19:37;-2.60;99.90
27890;DHT22;15238;49.082;9.102;2022-12-18T11:21:40;-2.40;99.90
27890;DHT22;15238;49.082;9.102;2022-12-18T11:24:00;-2.30;99.90
27890;DHT22;15238;49.082;9.102;2022-12-18T11:26:04;-2.20;99.90
27890;DHT22;15238;49.082;9.102;2022-12-18T11:28:29;-2.10;99.90
27890;DHT22;15238;49.082;9.102;2022-12-18T11:30:36;-2.00;99.90
27890;DHT22;15238;49.082;9.102;2022-12-18T11:32:40;-1.90;99.90
27890;DHT22;15238;49.082;9.102;2022-12-18T11:34:52;-1.90;99.90
27890;DHT22;15238;49.082;9.102;2022-12-18T11:36:54;-1.80;99.90
27890;DHT22;15238;49.082;9.102;2022-12-18T11:38:55;-1.70;99.90
27890;DHT22;15238;49.082;9.102;2022-12-18T11:43:13;-1.70;99.90
27890;DHT22;15238;49.082;9.102;2022-12-18T11:45:24;-1.70;99.90
27890;DHT22;15238;49.082;9.102;2022-12-18T11:47:44;-1.60;99.90
27890;DHT22;15238;49.082;9.102;2022-12-18T11:49:46;-1.60;99.90
27890;DHT22;15238;49.082;9.102;2022-12-18T11:51:52;-1.60;99.90
27890;DHT22;15238;49.082;9.102;2022-12-18T11:53:55;-1.50;99.90
27890;DHT22;15238;49.082;9.102;2022-12-18T12:01:27;-1.20;99.90
27890;DHT22;15238;49.082;9.102;2022-12-18T12:03:27;-1.20;99.90
27890;DHT22;15238;49.082;9.102;2022-12-18T12:07:45;-1.20;99.90
27890;DHT22;15238;49.082;9.102;2022-12-18T12:15:13;-1.00;99.90
27890;DHT22;15238;49.082;9.102;2022-12-18T12:17:36;-1.00;99.90
27890;DHT22;15238;49.082;9.102;2022-12-18T12:20:07;-1.00;99.90
27890;DHT22;15238;49.082;9.102;2022-12-18T12:22:27;-1.00;99.90
27890;DHT22;15238;49.082;9.102;2022-12-18T12:27:10;-1.00;99.90
27890;DHT22;15238;49.082;9.102;2022-12-18T12:29:31;-0.90;99.90
27890;DHT22;15238;49.082;9.102;2022-12-18T12:34:08;-0.80;99.90
27890;DHT22;15238;49.082;9.102;2022-12-18T12:38:30;-0.80;99.90
27890;DHT22;15238;49.082;9.102;2022-12-18T12:40:38;-0.70;99.90
27890;DHT22;15238;49.082;9.102;2022-12-18T12:42:56;-0.70;99.90
27890;DHT22;15238;49.082;9.102;2022-12-18T12:45:18;-0.70;99.90
27890;DHT22;15238;49.082;9.102;2022-12-18T12:47:25;-0.70;99.90
27890;DHT22;15238;49.082;9.102;2022-12-18T12:49:29;-0.60;99.90
27890;DHT22;15238;49.082;9.102;2022-12-18T12:51:38;-0.50;99.90
27890;DHT22;15238;49.082;9.102;2022-12-18T12:53:40;-0.30;99.90
27890;DHT22;15238;49.082;9.102;2022-12-18T12:55:42;-0.30;99.90
27890;DHT22;15238;49.082;9.102;2022-12-18T12:57:53;-0.30;99.90
27890;DHT22;15238;49.082;9.102;2022-12-18T13:00:06;-0.30;99.90
27890;DHT22;15238;49.082;9.102;2022-12-18T13:04:41;-0.40;99.90
27890;DHT22;15238;49.082;9.102;2022-12-18T13:08:55;-0.50;99.90
27890;DHT22;15238;49.082;9.102;2022-12-18T13:10:57;-0.50;99.90
27890;DHT22;15238;49.082;9.102;2022-12-18T13:13:17;-0.40;99.90
27890;DHT22;15238;49.082;9.102;2022-12-18T13:15:23;-0.40;99.90
27890;DHT22;15238;49.082;9.102;2022-12-18T13:17:28;-0.40;99.90
27890;DHT22;15238;49.082;9.102;2022-12-18T13:19:29;-0.40;99.90
27890;DHT22;15238;49.082;9.102;2022-12-18T13:21:33;-0.40;99.90
27890;DHT22;15238;49.082;9.102;2022-12-18T13:23:35;-0.40;99.90
27890;DHT22;15238;49.082;9.102;2022-12-18T13:25:39;-0.40;99.90
27890;DHT22;15238;49.082;9.102;2022-12-18T13:29:46;-0.40;99.90
27890;DHT22;15238;49.082;9.102;2022-12-18T13:33:50;-0.50;99.90
27890;DHT22;15238;49.082;9.102;2022-12-18T13:37:54;-0.50;99.90
27890;DHT22;15238;49.082;9.102;2022-12-18T13:39:55;-0.50;99.90
27890;DHT22;15238;49.082;9.102;2022-12-18T13:44:44;-0.60;99.90
27890;DHT22;15238;49.082;9.102;2022-12-18T13:46:45;-0.60;99.90
27890;DHT22;15238;49.082;9.102;2022-12-18T13:51:06;-0.70;99.90
27890;DHT22;15238;49.082;9.102;2022-12-18T13:53:20;-0.70;99.90
27890;DHT22;15238;49.082;9.102;2022-12-18T13:55:22;-0.70;99.90
27890;DHT22;15238;49.082;9.102;2022-12-18T13:57:29;-0.80;99.90
27890;DHT22;15238;49.082;9.102;2022-12-18T13:59:35;-0.80;99.90
27890;DHT22;15238;49.082;9.102;2022-12-18T14:01:36;-0.80;99.90
27890;DHT22;15238;49.082;9.102;2022-12-18T14:03:37;-0.80;99.90
27890;DHT22;15238;49.082;9.102;2022-12-18T14:05:38;-0.80;99.90
27890;DHT22;15238;49.082;9.102;2022-12-18T14:07:39;-0.70;99.90
27890;DHT22;15238;49.082;9.102;2022-12-18T14:09:43;-0.70;99.90
27890;DHT22;15238;49.082;9.102;2022-12-18T14:11:49;-0.60;99.90
27890;DHT22;15238;49.082;9.102;2022-12-18T14:13:50;-0.70;99.90